Terminal Aerodrome Forecast
Issued by NWS

Home | Current Version | Previous Version | Graphics & Text | Print | Product List | Glossary On
Versions: 1 2 3 4 5 6 7 8 9 10 11 12 13 14 15 16 17 18
000
FTUS43 KDVN 220900 AAA
TAFCID
TAF AMD
KCID 220907Z 2209/2306 18012KT P6SM BKN150
     FM221800 24012KT P6SM SCT050 BKN120
     FM230000 33007KT P6SM BKN150=

USA.gov is the U.S. government's official web portal to all federal, state and local government web resources and services.